Time;durP1;ratioP1;P1;durP2;ratioP2;P2;SDS_P1;SDS_P2;PMS_P1;PMS_P2;Temp;Humidity;BMP_temperature;BMP_pressure;BME280_temperature;BME280_humidity;BME280_pressure;Samples;Min_cycle;Max_cycle;Signal;HPM_P1;HPM_P2
2023/05/30 00:03:21;;;;;;;1999.90;999.90;;;14.80;88.60;;;;;;6738314;88;20224;-79
2023/05/30 00:13:22;;;;;;;1999.90;999.90;;;14.60;89.00;;;;;;6731597;88;20244;-79
2023/05/30 00:23:23;;;;;;;1999.90;999.90;;;14.50;89.60;;;;;;6734329;88;20206;-78
2023/05/30 00:43:27;;;;;;;1999.90;999.90;;;14.20;90.10;;;;;;6673828;89;20212;-78
2023/05/30 00:53:28;;;;;;;1999.90;999.90;;;14.00;90.50;;;;;;6670804;89;20224;-78
2023/05/30 01:03:32;;;;;;;1999.90;999.90;;;13.90;91.00;;;;;;6661012;89;20628;-78
2023/05/30 01:13:47;;;;;;;1999.90;999.90;;;13.80;91.40;;;;;;6658803;89;20191;-79
2023/05/30 01:24:15;;;;;;;1999.90;999.90;;;13.50;91.40;;;;;;6640893;89;20215;-78
2023/05/30 01:34:17;;;;;;;1999.90;999.90;;;13.50;90.80;;;;;;6639853;89;20238;-80
2023/05/30 01:44:27;;;;;;;1999.90;999.90;;;13.30;90.50;;;;;;6642775;88;20696;-80
2023/05/30 01:54:30;;;;;;;1999.90;999.90;;;13.10;90.40;;;;;;6653326;88;20298;-79
2023/05/30 02:04:31;;;;;;;1999.90;999.90;;;13.00;90.10;;;;;;6660228;88;20277;-79
2023/05/30 02:14:31;;;;;;;1999.90;999.90;;;12.90;88.30;;;;;;6652608;88;20292;-80
2023/05/30 02:24:32;;;;;;;1999.90;999.90;;;12.80;87.90;;;;;;6657273;88;20234;-79
2023/05/30 02:34:33;;;;;;;1999.90;999.90;;;12.60;87.90;;;;;;6651958;88;20659;-79
2023/05/30 02:44:33;;;;;;;1999.90;999.90;;;12.40;87.90;;;;;;6657105;88;20511;-79
2023/05/30 02:54:34;;;;;;;1999.90;999.90;;;12.20;88.60;;;;;;6661814;88;20204;-79
2023/05/30 03:04:34;;;;;;;1999.90;999.90;;;12.10;89.00;;;;;;6649616;88;20238;-79
2023/05/30 03:14:35;;;;;;;1999.90;999.90;;;12.00;89.90;;;;;;6655069;89;20700;-79
2023/05/30 03:24:35;;;;;;;1999.90;999.90;;;11.80;90.30;;;;;;6653190;89;20256;-79
2023/05/30 03:34:36;;;;;;;1999.90;999.90;;;11.80;90.80;;;;;;6656229;88;20181;-79
2023/05/30 03:44:37;;;;;;;1999.90;999.90;;;11.80;90.90;;;;;;6657208;89;20302;-79
2023/05/30 03:54:37;;;;;;;1999.90;999.90;;;11.60;91.50;;;;;;6668103;89;20674;-80
2023/05/30 04:04:38;;;;;;;1999.90;999.90;;;11.40;91.80;;;;;;6685095;89;20227;-80
2023/05/30 04:14:38;;;;;;;1999.90;999.90;;;11.40;92.60;;;;;;6677114;89;20234;-81
2023/05/30 04:24:39;;;;;;;1999.90;999.90;;;11.40;92.70;;;;;;6676227;89;20191;-81
2023/05/30 04:34:40;;;;;;;1999.90;999.90;;;11.50;93.00;;;;;;6675282;89;20212;-80
2023/05/30 04:44:40;;;;;;;1999.90;999.90;;;11.50;93.30;;;;;;6674168;89;20203;-83
2023/05/30 04:54:41;;;;;;;1999.90;999.90;;;11.50;94.20;;;;;;6675040;89;20514;-82
2023/05/30 05:04:42;;;;;;;1999.90;999.90;;;11.60;94.30;;;;;;6677201;89;20205;-82
2023/05/30 05:14:42;;;;;;;1999.90;999.90;;;11.60;94.80;;;;;;6677245;89;20187;-81
2023/05/30 05:24:44;;;;;;;1999.90;999.90;;;11.70;95.50;;;;;;6677451;89;20184;-81
2023/05/30 05:34:45;;;;;;;1999.90;999.90;;;11.80;96.10;;;;;;6683617;89;20328;-81
2023/05/30 05:44:46;;;;;;;1999.90;999.90;;;11.70;97.60;;;;;;6681345;89;20228;-81
2023/05/30 06:05:48;;;;;;;1999.90;999.90;;;12.40;98.10;;;;;;6686758;88;20180;-80
2023/05/30 06:15:49;;;;;;;1999.90;999.90;;;13.20;97.20;;;;;;6677184;89;20229;-80
2023/05/30 06:25:49;;;;;;;1999.90;999.90;;;13.80;96.10;;;;;;6668129;89;20231;-79
2023/05/30 06:35:50;;;;;;;1999.90;999.90;;;14.50;94.90;;;;;;6664152;89;20326;-77
2023/05/30 06:45:50;;;;;;;1999.90;999.90;;;14.70;93.90;;;;;;6665379;89;20213;-77
2023/05/30 06:55:51;;;;;;;1999.90;999.90;;;15.10;93.80;;;;;;6663557;89;20201;-77
2023/05/30 07:05:51;;;;;;;1999.90;999.90;;;16.00;93.20;;;;;;6658188;89;20176;-77
2023/05/30 07:15:52;;;;;;;1999.90;999.90;;;16.50;92.40;;;;;;6651260;89;20228;-76
2023/05/30 07:25:52;;;;;;;1999.90;999.90;;;17.20;92.20;;;;;;6655214;88;20279;-76
2023/05/30 07:35:53;;;;;;;1999.90;999.90;;;17.10;92.10;;;;;;6665257;88;20278;-77
2023/05/30 07:45:53;;;;;;;1999.90;999.90;;;17.40;92.30;;;;;;6664918;88;21281;-78
2023/05/30 08:05:57;;;;;;;1999.90;999.90;;;18.50;91.70;;;;;;6738437;88;20220;-78
2023/05/30 08:15:58;;;;;;;1999.90;999.90;;;18.90;91.40;;;;;;6737376;88;20376;-78
2023/05/30 08:25:59;;;;;;;1999.90;999.90;;;19.50;90.80;;;;;;6737805;88;20191;-78
2023/05/30 08:36:00;;;;;;;1999.90;999.90;;;19.80;90.10;;;;;;6739652;88;20191;-77
2023/05/30 08:46:04;;;;;;;1999.90;999.90;;;19.80;90.30;;;;;;6739619;88;20282;-79
2023/05/30 08:56:10;;;;;;;1999.90;999.90;;;20.50;89.40;;;;;;6741617;88;20308;-81
2023/05/30 09:06:12;;;;;;;1999.90;999.90;;;21.30;88.50;;;;;;6675027;89;20180;-80
2023/05/30 09:16:13;;;;;;;1999.90;999.90;;;22.10;87.00;;;;;;6674057;89;20223;-79
2023/05/30 09:26:15;;;;;;;1999.90;999.90;;;21.60;86.60;;;;;;6671055;88;20199;-78
2023/05/30 09:36:24;;;;;;;1999.90;999.90;;;22.80;85.90;;;;;;6674153;88;20195;-79
2023/05/30 09:46:27;;;;;;;1999.90;999.90;;;23.50;84.60;;;;;;6684173;89;20187;-79
2023/05/30 09:56:35;;;;;;;1999.90;999.90;;;23.40;84.70;;;;;;6685751;89;20194;-79
2023/05/30 10:06:40;;;;;;;1999.90;999.90;;;23.90;85.60;;;;;;6667083;89;20190;-80
2023/05/30 10:16:59;;;;;;;1999.90;999.90;;;24.90;83.80;;;;;;6667169;89;20176;-77
2023/05/30 10:27:03;;;;;;;1999.90;999.90;;;25.40;81.70;;;;;;6664195;89;20238;-79
2023/05/30 10:37:05;;;;;;;1999.90;999.90;;;25.50;83.00;;;;;;6657827;89;20703;-80
2023/05/30 10:47:05;;;;;;;1999.90;999.90;;;26.10;81.90;;;;;;6657720;89;20218;-78
2023/05/30 10:57:20;;;;;;;1999.90;999.90;;;26.00;82.40;;;;;;6658954;88;20257;-78
2023/05/30 11:07:21;;;;;;;1999.90;999.90;;;25.90;81.30;;;;;;6660213;89;20189;-79
2023/05/30 11:17:30;;;;;;;1999.90;999.90;;;26.70;80.80;;;;;;6655962;88;20187;-80
2023/05/30 11:27:30;;;;;;;1999.90;999.90;;;27.80;80.10;;;;;;6660142;89;20180;-79
2023/05/30 11:37:32;;;;;;;1999.90;999.90;;;27.60;79.40;;;;;;6654129;88;20225;-79
2023/05/30 11:47:33;;;;;;;1999.90;999.90;;;26.90;78.20;;;;;;6653587;89;20209;-80
2023/05/30 11:57:34;;;;;;;1999.90;999.90;;;27.40;79.20;;;;;;6654789;88;20632;-79
2023/05/30 12:07:34;;;;;;;1999.90;999.90;;;27.20;77.90;;;;;;6651750;89;20200;-79
2023/05/30 12:17:39;;;;;;;1999.90;999.90;;;28.20;76.80;;;;;;6651544;88;20203;-79
2023/05/30 12:27:49;;;;;;;1999.90;999.90;;;27.40;76.80;;;;;;6653990;89;20305;-79
2023/05/30 12:37:55;;;;;;;1999.90;999.90;;;28.10;74.00;;;;;;6652979;89;20192;-78
2023/05/30 12:47:56;;;;;;;1999.90;999.90;;;28.80;72.80;;;;;;6669422;89;20191;-78
2023/05/30 12:57:59;;;;;;;1999.90;999.90;;;28.30;73.40;;;;;;6668685;89;20194;-79
2023/05/30 13:08:00;;;;;;;1999.90;999.90;;;28.80;71.90;;;;;;6668433;88;20836;-77
2023/05/30 13:18:00;;;;;;;1999.90;999.90;;;28.40;71.90;;;;;;6669480;89;20196;-79
2023/05/30 13:28:01;;;;;;;1999.90;999.90;;;28.10;71.70;;;;;;6670068;89;20191;-78
2023/05/30 13:38:02;;;;;;;1999.90;999.90;;;28.80;70.20;;;;;;6678471;89;20207;-78
2023/05/30 13:48:03;;;;;;;1999.90;999.90;;;28.90;69.70;;;;;;6676088;89;20175;-81
2023/05/30 13:58:03;;;;;;;1999.90;999.90;;;28.70;69.30;;;;;;6700640;78;20288;-79
2023/05/30 14:08:04;;;;;;;1999.90;999.90;;;28.80;69.20;;;;;;6725750;88;20195;-79
2023/05/30 14:18:05;;;;;;;1999.90;999.90;;;28.10;68.70;;;;;;6725897;88;20210;-78
2023/05/30 14:28:06;;;;;;;1999.90;999.90;;;29.00;67.90;;;;;;6726170;88;20193;-80
2023/05/30 14:38:06;;;;;;;1999.90;999.90;;;28.50;68.50;;;;;;6708410;88;20182;-79
2023/05/30 14:48:08;;;;;;;1999.90;999.90;;;28.40;68.00;;;;;;6705042;88;20575;-78
2023/05/30 14:58:09;;;;;;;1999.90;999.90;;;27.60;68.10;;;;;;6725049;88;20267;-79
2023/05/30 15:08:10;;;;;;;1999.90;999.90;;;28.10;68.90;;;;;;6666514;88;20216;-79
2023/05/30 15:18:10;;;;;;;1999.90;999.90;;;27.70;68.60;;;;;;6678330;88;20231;-79
2023/05/30 15:28:11;;;;;;;1999.90;999.90;;;27.60;69.10;;;;;;6660166;89;20181;-79
2023/05/30 15:38:11;;;;;;;1999.90;999.90;;;27.20;69.60;;;;;;6673358;89;20314;-79
2023/05/30 15:48:12;;;;;;;1999.90;999.90;;;27.00;70.30;;;;;;6662127;89;20232;-80
2023/05/30 15:58:13;;;;;;;1999.90;999.90;;;27.20;70.70;;;;;;6660106;89;20264;-79
2023/05/30 16:08:13;;;;;;;1999.90;999.90;;;27.20;71.10;;;;;;6667460;89;20231;-77
2023/05/30 16:18:14;;;;;;;1999.90;999.90;;;27.10;71.50;;;;;;6649401;89;20936;-77
2023/05/30 16:28:14;;;;;;;1999.90;999.90;;;27.30;73.00;;;;;;6649935;89;20213;-77
2023/05/30 16:38:15;;;;;;;1999.90;999.90;;;26.20;73.10;;;;;;6652544;89;20208;-77
2023/05/30 16:48:16;;;;;;;1999.90;999.90;;;25.90;73.50;;;;;;6648956;89;20216;-78
2023/05/30 16:58:16;;;;;;;1999.90;999.90;;;26.00;73.70;;;;;;6648532;89;20260;-76
2023/05/30 17:08:17;;;;;;;1999.90;999.90;;;25.40;73.90;;;;;;6648244;89;20591;-78
2023/05/30 17:18:17;;;;;;;1999.90;999.90;;;25.30;75.20;;;;;;6647641;89;20696;-79
2023/05/30 17:28:18;;;;;;;1999.90;999.90;;;25.30;76.00;;;;;;6669189;88;20321;-80
2023/05/30 17:38:19;;;;;;;1999.90;999.90;;;25.60;77.10;;;;;;6655993;89;20203;-79
2023/05/30 17:48:20;;;;;;;1999.90;999.90;;;25.10;78.00;;;;;;6655990;89;20219;-79
2023/05/30 17:58:21;;;;;;;1999.90;999.90;;;24.50;79.50;;;;;;6634944;89;20214;-77
2023/05/30 18:08:22;;;;;;;1999.90;999.90;;;24.10;79.40;;;;;;6670334;88;20247;-78
2023/05/30 18:18:22;;;;;;;1999.90;999.90;;;23.70;80.60;;;;;;6637767;88;20193;-77
2023/05/30 18:28:24;;;;;;;1999.90;999.90;;;23.40;81.90;;;;;;6662720;88;20718;-77
2023/05/30 18:38:25;;;;;;;1999.90;999.90;;;22.90;83.00;;;;;;6663537;88;20203;-78
2023/05/30 18:48:25;;;;;;;1999.90;999.90;;;22.50;83.60;;;;;;6663528;89;20618;-78
2023/05/30 18:58:27;;;;;;;1999.90;999.90;;;22.00;84.70;;;;;;6663366;89;20232;-78
2023/05/30 19:08:27;;;;;;;1999.90;999.90;;;21.80;85.80;;;;;;6677506;88;20187;-78
2023/05/30 19:18:28;;;;;;;1999.90;999.90;;;21.40;86.80;;;;;;6663252;89;20262;-78
2023/05/30 19:28:33;;;;;;;1999.90;999.90;;;21.00;87.80;;;;;;6664969;89;20182;-78
2023/05/30 19:38:34;;;;;;;1999.90;999.90;;;20.70;88.50;;;;;;6665719;88;20557;-79
2023/05/30 19:48:34;;;;;;;1999.90;999.90;;;20.20;89.40;;;;;;6666207;89;20206;-78
2023/05/30 19:58:35;;;;;;;1999.90;999.90;;;20.00;90.20;;;;;;6671607;89;20192;-80
2023/05/30 20:08:35;;;;;;;1999.90;999.90;;;19.60;90.70;;;;;;6639946;89;20711;-80
2023/05/30 20:18:36;;;;;;;1999.90;999.90;;;19.40;91.20;;;;;;6636005;89;20732;-79
2023/05/30 20:28:36;;;;;;;1999.90;999.90;;;19.10;92.30;;;;;;6638246;88;20208;-79
2023/05/30 20:38:37;;;;;;;1999.90;999.90;;;18.90;93.50;;;;;;6676054;88;20622;-80
2023/05/30 20:48:37;;;;;;;1999.90;999.90;;;18.50;95.50;;;;;;6689305;88;20209;-81
2023/05/30 20:58:38;;;;;;;1999.90;999.90;;;18.20;98.60;;;;;;6656736;89;20321;-79
2023/05/30 21:08:38;;;;;;;1999.90;999.90;;;18.10;99.90;;;;;;6651764;89;20720;-79
2023/05/30 21:18:39;;;;;;;1999.90;999.90;;;17.90;99.90;;;;;;6648583;89;20765;-79
2023/05/30 21:28:39;;;;;;;1999.90;999.90;;;17.80;99.90;;;;;;6677886;88;20192;-79
2023/05/30 21:38:41;;;;;;;1999.90;999.90;;;17.60;99.90;;;;;;6687196;88;20194;-80
2023/05/30 21:48:41;;;;;;;1999.90;999.90;;;17.40;99.90;;;;;;6673818;88;20190;-78
2023/05/30 21:58:42;;;;;;;1999.90;999.90;;;17.20;99.90;;;;;;6654116;88;20641;-78
2023/05/30 22:08:43;;;;;;;1999.90;999.90;;;17.20;99.90;;;;;;6664159;88;20629;-78
2023/05/30 22:18:43;;;;;;;1999.90;999.90;;;17.00;99.90;;;;;;6655268;88;20207;-80
2023/05/30 22:28:44;;;;;;;1999.90;999.90;;;16.80;99.90;;;;;;6632518;89;20571;-79
2023/05/30 22:38:44;;;;;;;1999.90;999.90;;;16.80;99.90;;;;;;6630719;89;20181;-79
2023/05/30 22:48:45;;;;;;;1999.90;999.90;;;16.70;99.90;;;;;;6632412;89;20296;-79
2023/05/30 22:58:45;;;;;;;1999.90;999.90;;;16.50;99.90;;;;;;6632326;89;20879;-79
2023/05/30 23:08:46;;;;;;;1999.90;999.90;;;16.60;99.90;;;;;;6631748;89;20180;-79
2023/05/30 23:18:46;;;;;;;1999.90;999.90;;;16.30;99.90;;;;;;6632048;89;20195;-80
2023/05/30 23:28:47;;;;;;;1999.90;999.90;;;16.20;99.90;;;;;;6632599;89;20290;-80
2023/05/30 23:38:48;;;;;;;1999.90;999.90;;;16.00;99.90;;;;;;6632557;89;20218;-80
2023/05/30 23:48:48;;;;;;;1999.90;999.90;;;16.00;99.90;;;;;;6631127;89;20188;-79
2023/05/30 23:58:49;;;;;;;1999.90;999.90;;;15.90;99.90;;;;;;6630721;88;20197;-78
